createdAt,value
2023-03-21T00:04:48.421Z,97920.97
2023-03-21T00:09:55.199Z,97927.28
2023-03-21T00:15:04.742Z,97925.25
2023-03-21T00:20:06.316Z,97915.75
2023-03-21T00:25:08.262Z,97912.66
2023-03-21T00:30:09.479Z,97912.88
2023-03-21T00:35:45.313Z,97904.25
2023-03-21T00:40:35.432Z,97898.09
2023-03-21T00:45:41.747Z,97904.56
2023-03-21T00:50:45.394Z,97894.47
2023-03-21T00:55:46.693Z,97888.03
2023-03-21T01:00:47.994Z,97883.56
2023-03-21T01:06:05.744Z,97881.63
2023-03-21T01:11:07.252Z,97878.09
2023-03-21T01:16:08.556Z,97875.03
2023-03-21T01:21:09.848Z,97865.59
2023-03-21T01:26:11.371Z,97872.97
2023-03-21T01:31:12.677Z,97875.63
2023-03-21T01:36:14.640Z,97877.78
2023-03-21T01:41:19.948Z,97873.31
2023-03-21T01:46:21.655Z,97870.69
2023-03-21T01:51:23.005Z,97869.81
2023-03-21T01:56:24.224Z,97871.84
2023-03-21T02:01:25.659Z,97867.94
2023-03-21T02:06:30.284Z,97863.88
2023-03-21T02:11:32.256Z,97865.03
2023-03-21T02:16:33.581Z,97863.75
2023-03-21T02:21:34.878Z,97863.94
2023-03-21T02:26:42.512Z,97852.66
2023-03-21T02:31:45.164Z,97850.91
2023-03-21T02:36:46.439Z,97849.22
2023-03-21T02:41:47.681Z,97847.94
2023-03-21T02:46:53.799Z,97845.50
2023-03-21T02:52:00.258Z,97839.59
2023-03-21T02:57:06.519Z,97839.47
2023-03-21T03:02:07.801Z,97834.28
2023-03-21T03:07:09.116Z,97842.66
2023-03-21T03:12:10.576Z,97844.88
2023-03-21T03:17:11.810Z,97839.69
2023-03-21T03:22:13.039Z,97835.34
2023-03-21T03:27:15.662Z,97840.66
2023-03-21T03:32:16.926Z,97846.66
2023-03-21T03:37:18.134Z,97842.22
2023-03-21T03:42:27.977Z,97845.56
2023-03-21T03:47:33.747Z,97842.34
2023-03-21T03:52:42.063Z,97845.66
2023-03-21T03:57:48.255Z,97841.50
2023-03-21T04:02:49.504Z,97840.00
2023-03-21T04:07:51.141Z,97837.56
2023-03-21T04:12:52.600Z,97836.03
2023-03-21T04:17:53.907Z,97837.03
2023-03-21T04:22:56.391Z,97834.41
2023-03-21T04:27:57.885Z,97830.78
2023-03-21T04:33:01.050Z,97837.25
2023-03-21T04:38:02.300Z,97832.66
2023-03-21T04:43:03.502Z,97825.34
2023-03-21T04:48:04.839Z,97825.34
2023-03-21T04:53:06.147Z,97832.94
2023-03-21T04:58:07.375Z,97833.88
2023-03-21T05:03:09.243Z,97838.19
2023-03-21T05:08:10.632Z,97838.97
2023-03-21T05:13:11.921Z,97836.19
2023-03-21T05:18:13.244Z,97836.78
2023-03-21T05:23:18.559Z,97834.28
2023-03-21T05:28:19.862Z,97832.50
2023-03-21T05:33:21.093Z,97837.97
2023-03-21T05:38:22.314Z,97839.78
2023-03-21T05:43:23.724Z,97840.59
2023-03-21T05:48:25.267Z,97845.72
2023-03-21T05:53:26.494Z,97841.78
2023-03-21T05:58:27.773Z,97845.09
2023-03-21T06:03:29.029Z,97845.31
2023-03-21T06:08:30.392Z,97846.03
2023-03-21T06:13:32.920Z,97848.66
2023-03-21T06:18:34.143Z,97848.25
2023-03-21T06:23:36.670Z,97844.75
2023-03-21T06:28:38.275Z,97850.22
2023-03-21T06:33:39.535Z,97855.84
2023-03-21T06:38:40.924Z,97866.59
2023-03-21T06:43:42.190Z,97860.19
2023-03-21T06:48:44.650Z,97861.69
2023-03-21T06:53:48.236Z,97861.88
2023-03-21T06:58:49.793Z,97864.72
2023-03-21T07:03:52.038Z,97860.50
2023-03-21T07:08:53.306Z,97864.53
2023-03-21T07:13:54.584Z,97867.56
2023-03-21T07:18:56.056Z,97869.44
2023-03-21T07:23:57.295Z,97859.00
2023-03-21T07:28:58.558Z,97854.78
2023-03-21T07:33:59.786Z,97850.50
2023-03-21T07:39:01.155Z,97845.53
2023-03-21T07:44:03.628Z,97844.31
2023-03-21T07:49:06.029Z,97832.94
2023-03-21T07:54:07.377Z,97822.59
2023-03-21T07:59:08.643Z,97815.47
2023-03-21T08:04:09.888Z,97808.44
2023-03-21T08:09:11.094Z,97800.78
2023-03-21T08:14:12.296Z,97782.56
2023-03-21T08:19:13.569Z,97783.19
2023-03-21T08:24:14.824Z,97770.63
2023-03-21T08:29:16.215Z,97757.34
2023-03-21T08:34:18.221Z,97746.19
2023-03-21T08:39:19.721Z,97726.88
2023-03-21T08:44:22.127Z,97731.78
2023-03-21T08:49:23.384Z,97708.00
2023-03-21T08:54:24.595Z,97697.78
2023-03-21T08:59:25.877Z,97684.50
2023-03-21T09:04:27.811Z,97668.66
2023-03-21T09:09:29.087Z,97651.13
2023-03-21T09:14:30.326Z,97643.13
2023-03-21T09:19:31.870Z,97636.84
2023-03-21T09:24:33.138Z,97625.00
2023-03-21T09:29:34.965Z,97617.75
2023-03-21T09:34:41.091Z,97615.63
2023-03-21T09:39:42.959Z,97608.44
2023-03-21T09:44:44.577Z,97598.78
2023-03-21T09:49:49.118Z,97602.13
2023-03-21T09:54:50.645Z,97597.75
2023-03-21T09:59:53.739Z,97598.50
2023-03-21T10:04:55.650Z,97582.41
2023-03-21T10:09:57.613Z,97573.97
2023-03-21T10:14:58.962Z,97572.38
2023-03-21T10:20:00.237Z,97559.66
2023-03-21T10:25:01.499Z,97558.69
2023-03-21T10:30:02.913Z,97554.44
2023-03-21T10:35:04.999Z,97545.31
2023-03-21T10:40:08.730Z,97540.59
2023-03-21T10:45:09.965Z,97538.00
2023-03-21T10:50:11.590Z,97534.63
2023-03-21T10:55:13.065Z,97542.34
2023-03-21T11:00:18.106Z,97538.47
2023-03-21T11:05:20.729Z,97532.63
2023-03-21T11:10:28.642Z,97519.91
2023-03-21T11:15:30.794Z,97509.00
2023-03-21T11:20:33.625Z,97492.16
2023-03-21T11:25:34.963Z,97485.09
2023-03-21T11:30:36.251Z,97485.16
2023-03-21T11:35:37.908Z,97479.47
2023-03-21T11:40:39.600Z,97462.88
2023-03-21T11:45:41.752Z,97461.13
2023-03-21T11:50:43.019Z,97462.31
2023-03-21T11:55:44.380Z,97452.94
2023-03-21T12:00:45.763Z,97436.16
2023-03-21T12:05:46.974Z,97427.66
2023-03-21T12:10:48.310Z,97416.63
2023-03-21T12:15:49.661Z,97404.75
2023-03-21T12:20:51.064Z,97394.50
2023-03-21T12:25:54.841Z,97387.97
2023-03-21T12:30:56.335Z,97386.84
2023-03-21T12:35:57.670Z,97384.00
2023-03-21T12:40:59.000Z,97376.69
2023-03-21T12:46:00.383Z,97369.44
2023-03-21T12:51:01.813Z,97372.53
2023-03-21T12:56:03.066Z,97364.78
2023-03-21T13:01:04.840Z,97352.13
2023-03-21T13:06:06.147Z,97353.94
2023-03-21T13:11:07.405Z,97350.56
2023-03-21T13:16:08.702Z,97348.38
2023-03-21T13:21:09.989Z,97350.34
2023-03-21T13:26:12.490Z,97336.63
2023-03-21T13:31:13.829Z,97328.31
2023-03-21T13:36:15.124Z,97318.81
2023-03-21T13:41:16.470Z,97303.34
2023-03-21T13:46:17.864Z,97301.16
2023-03-21T13:51:19.213Z,97289.63
2023-03-21T13:56:21.002Z,97301.59
2023-03-21T14:01:23.555Z,97297.03
2023-03-21T14:06:24.849Z,97287.69
2023-03-21T14:11:26.123Z,97290.00
2023-03-21T14:16:28.752Z,97275.28
2023-03-21T14:21:30.411Z,97284.81
2023-03-21T14:26:32.010Z,97266.31
2023-03-21T14:31:33.412Z,97268.38
2023-03-21T14:36:36.053Z,97272.50
2023-03-21T14:41:39.283Z,97262.16
2023-03-21T14:46:41.906Z,97263.09
2023-03-21T14:51:43.327Z,97251.44
2023-03-21T15:01:48.951Z,97267.84
2023-03-21T15:06:50.269Z,97257.19
2023-03-21T15:11:51.923Z,97262.03
2023-03-21T15:16:53.316Z,97267.03
2023-03-21T15:21:54.646Z,97257.75
2023-03-21T15:26:55.910Z,97257.19
2023-03-21T15:31:57.181Z,97262.66
2023-03-21T15:36:58.458Z,97265.09
2023-03-21T15:41:59.760Z,97264.50
2023-03-21T15:47:02.242Z,97264.59
2023-03-21T15:52:03.570Z,97268.03
2023-03-21T15:57:09.361Z,97271.59
2023-03-21T16:02:10.910Z,97281.03
2023-03-21T16:07:16.862Z,97278.53
2023-03-21T16:12:18.976Z,97285.00
2023-03-21T16:17:20.697Z,97298.94
2023-03-21T16:22:22.331Z,97300.50
2023-03-21T16:27:23.779Z,97303.09
2023-03-21T16:32:25.316Z,97308.72
2023-03-21T16:37:26.522Z,97318.47
2023-03-21T16:42:27.947Z,97320.38
2023-03-21T16:47:29.386Z,97326.00
2023-03-21T16:52:30.637Z,97329.88
2023-03-21T17:02:49.579Z,97349.00
2023-03-21T17:07:50.837Z,97355.13
2023-03-21T17:12:52.111Z,97353.88
2023-03-21T17:17:55.548Z,97361.72
2023-03-21T17:22:56.787Z,97356.44
2023-03-21T17:27:58.103Z,97370.97
2023-03-21T17:32:59.359Z,97370.38
2023-03-21T17:38:00.641Z,97382.94
2023-03-21T17:43:02.000Z,97380.94
2023-03-21T17:48:04.038Z,97389.13
2023-03-21T17:53:05.306Z,97390.66
2023-03-21T17:58:06.697Z,97402.13
2023-03-21T18:03:07.947Z,97407.06
2023-03-21T18:08:11.997Z,97414.97
2023-03-21T18:13:13.721Z,97415.97
2023-03-21T18:18:14.972Z,97418.59
2023-03-21T18:23:18.697Z,97425.19
2023-03-21T18:28:21.209Z,97419.63
2023-03-21T18:33:22.663Z,97426.81
2023-03-21T18:38:23.875Z,97432.66
2023-03-21T18:44:01.546Z,97434.88
2023-03-21T18:48:46.624Z,97440.44
2023-03-21T18:53:47.897Z,97445.50
2023-03-21T18:58:49.180Z,97433.34
2023-03-21T19:04:14.458Z,97437.47
2023-03-21T19:09:14.499Z,97441.25
2023-03-21T19:14:16.188Z,97447.97
2023-03-21T19:19:18.760Z,97469.03
2023-03-21T19:24:27.743Z,97474.56
2023-03-21T19:29:29.935Z,97480.59
2023-03-21T19:34:31.463Z,97482.94
2023-03-21T19:39:32.905Z,97483.91
2023-03-21T19:44:34.264Z,97486.31
2023-03-21T19:50:10.045Z,97481.72
2023-03-21T19:54:57.268Z,97479.97
2023-03-21T19:59:58.943Z,97479.47
2023-03-21T20:05:01.365Z,97478.13
2023-03-21T20:10:02.727Z,97473.66
2023-03-21T20:15:16.417Z,97485.19
2023-03-21T20:20:18.539Z,97490.66
2023-03-21T20:25:22.001Z,97493.28
2023-03-21T20:30:23.412Z,97488.47
2023-03-21T20:36:05.613Z,97485.50
2023-03-21T20:40:47.136Z,97489.13
2023-03-21T20:45:48.413Z,97493.50
2023-03-21T20:50:49.950Z,97495.16
2023-03-21T20:55:51.422Z,97510.06
2023-03-21T21:00:53.037Z,97503.66
2023-03-21T21:05:54.917Z,97510.50
2023-03-21T21:11:42.758Z,97519.44
2023-03-21T21:16:17.666Z,97502.06
2023-03-21T21:21:18.927Z,97514.25
2023-03-21T21:26:20.140Z,97521.19
2023-03-21T21:31:23.860Z,97522.44
2023-03-21T21:36:26.009Z,97518.50
2023-03-21T21:41:27.702Z,97519.50
2023-03-21T21:46:28.959Z,97509.09
2023-03-21T21:51:33.082Z,97509.59
2023-03-21T21:56:38.483Z,97506.59
2023-03-21T22:01:42.299Z,97516.94
2023-03-21T22:06:43.584Z,97517.16
2023-03-21T22:11:44.815Z,97516.06
2023-03-21T22:16:46.777Z,97523.72
2023-03-21T22:21:48.163Z,97522.22
2023-03-21T22:26:49.438Z,97523.75
2023-03-21T22:31:51.340Z,97510.56
2023-03-21T22:36:52.593Z,97502.81
2023-03-21T22:42:04.591Z,97499.47
2023-03-21T22:47:06.080Z,97502.47
2023-03-21T22:52:07.356Z,97512.28
2023-03-21T22:57:08.828Z,97507.41
2023-03-21T23:02:10.112Z,97510.38
2023-03-21T23:07:11.606Z,97519.38
2023-03-21T23:12:14.788Z,97523.56
2023-03-21T23:17:16.415Z,97522.47
2023-03-21T23:22:17.672Z,97521.94
2023-03-21T23:27:19.251Z,97522.78
2023-03-21T23:32:20.682Z,97517.53
2023-03-21T23:37:24.841Z,97521.25
2023-03-21T23:42:27.052Z,97519.41
2023-03-21T23:47:28.339Z,97520.75
2023-03-21T23:52:29.593Z,97520.50
2023-03-21T23:57:30.795Z,97513.78
